Latest Coastal Weather Observations for Roebourne Airport

IDW60701

Issued at 9:12 pm WST Monday 3 August 2015 (issued every 10 minutes, with the page automatically refreshed every 10 minutes)

About coastal observations | Map of coastal stations | Coastal observations for WA | Marine services | Other Formats
Station Details ID: 004090 Name: ROEBOURNE AERO Lat: -20.76 Lon: 117.16 Height: 10.7 m
Data from the previous 72 hours. | See also: Recent months at Roebourne Airport
Date/Time
WST
Temp

°C
Wind Pressure Rain
since 9am
mm
Weather Cloud Vis
km
Sea
Height
m
Swell
Dir
 
Speed
knots
Gust
knots
hPa Trend Height
m
Period
s
Dir
03/09:00pm 24.2 SE 11 13 1020.6 - 0.0 - - - - - - -
03/08:30pm 24.3 SE 11 13 1020.6 - 0.0 - - - - - - -
03/08:00pm 24.6 SE 11 15 1020.3 - 0.0 - - - - - - -
03/07:30pm 24.4 SE 10 11 1020.0 - 0.0 - - - - - - -
03/07:00pm 24.5 SE 9 11 1019.7 - 0.0 - - - - - - -
03/06:30pm 24.8 ESE 9 11 1019.5 - 0.0 - - - - - - -
03/06:00pm 26.2 ESE 10 13 1019.3 - 0.0 - - - - - - -
03/05:30pm 27.9 ESE 10 14 1019.0 - 0.0 - - - - - - -
03/05:00pm 28.7 ESE 14 19 1018.7 - 0.0 - - - - - - -
03/04:30pm 29.4 ESE 16 21 1018.6 - 0.0 - - - - - - -
03/04:00pm 30.0 E 14 19 1018.6 - 0.0 - - - - - - -
03/03:30pm 30.0 E 15 21 1018.6 - 0.0 - - - - - - -
03/03:00pm 29.9 E 17 23 1018.7 - 0.0 - - - - - - -
03/02:30pm 29.6 E 17 23 1018.8 - 0.0 - - - - - - -
03/02:14pm 30.1 E 17 27 1019.1 - 0.0 - - - - - - -
03/02:00pm 29.6 E 17 24 1019.1 - 0.0 - - - - - - -
03/01:30pm 29.6 ESE 16 22 1019.6 - 0.0 - - - - - - -
03/01:00pm 28.8 ESE 17 23 1020.1 - 0.0 - - - - - - -
03/12:30pm 28.7 E 19 26 1020.5 - 0.0 - - - - - - -
03/12:00pm 27.7 E 19 25 1021.2 - 0.0 - - - - - - -
03/11:30am 26.9 E 18 24 1021.7 - 0.0 - - - - - - -
03/11:00am 26.3 ESE 17 23 1022.2 - 0.0 - - - - - - -
03/10:30am 25.8 ESE 18 25 1022.4 - 0.0 - - - - - - -
03/10:00am 24.6 E 19 26 1022.3 - 0.0 - - - - - - -
03/09:30am 23.9 ESE 20 29 1022.2 - 0.0 - - - - - - -
03/09:00am 23.0 ESE 21 27 1022.0 - 0.0 - - - - - - -
03/08:30am 22.2 ESE 19 25 1021.7 - 0.0 - - - - - - -
03/08:00am 21.4 ESE 16 22 1021.4 - 0.0 - - - - - - -
03/07:30am 20.4 ESE 15 22 1021.1 - 0.0 - - - - - - -
03/07:00am 19.3 ESE 15 18 1020.7 - 0.0 - - - - - - -
03/06:30am 19.0 ESE 13 16 1020.2 - 0.0 - - - - - - -
03/06:00am 19.2 ESE 12 15 1019.8 - 0.0 - - - - - - -
03/05:30am 18.8 ESE 10 13 1019.3 - 0.0 - - - - - - -
03/05:00am 18.8 ESE 11 13 1018.9 - 0.0 - - - - - - -
03/04:30am 19.4 ESE 12 15 1018.7 - 0.0 - - - - - - -
03/04:00am 19.7 ESE 12 15 1018.5 - 0.0 - - - - - - -
03/03:30am 20.6 ESE 14 17 1018.4 - 0.0 - - - - - - -
03/03:00am 20.8 ESE 13 17 1018.1 - 0.0 - - - - - - -
03/02:30am 21.7 ESE 12 17 1018.1 - 0.0 - - - - - - -
03/02:00am 18.1 SE 5 8 1018.1 - 0.0 - - - - - - -
03/01:30am 17.1 SE 4 7 1018.4 - 0.0 - - - - - - -
03/01:00am 17.2 SE 5 6 1018.6 - 0.0 - - - - - - -
03/12:30am 17.3 SE 6 6 1018.7 - 0.0 - - - - - - -
03/12:00am 17.0 ESE 2 3 1018.8 - 0.0 - - - - - - -
 
Date/Time
WST
Temp

°C
Wind Pressure Rain
since 9am
mm
Weather Cloud Vis
km
Sea
Height
m
Swell
Dir
 
Speed
knots
Gust
knots
hPa Trend Height
m
Period
s
Dir
02/11:30pm 16.6 S 7 8 1018.9 - 0.0 - - - - - - -
02/11:00pm 17.3 SSW 5 6 1019.1 - 0.0 - - - - - - -
02/10:30pm 19.2 SW 2 3 1019.1 - 0.0 - - - - - - -
02/10:00pm 20.6 W 3 4 1019.3 - 0.0 - - - - - - -
02/09:30pm 21.3 SW 7 8 1019.1 - 0.0 - - - - - - -
02/09:00pm 21.7 WSW 5 7 1019.3 - 0.0 - - - - - - -
02/08:30pm 22.0 WSW 7 7 1019.2 - 0.0 - - - - - - -
02/08:00pm 22.7 WSW 5 6 1019.0 - 0.0 - - - - - - -
02/07:30pm 23.5 WSW 6 7 1018.5 - 0.0 - - - - - - -
02/07:00pm 24.2 WSW 8 10 1018.1 - 0.0 - - - - - - -
02/06:30pm 25.5 WSW 7 10 1017.8 - 0.0 - - - - - - -
02/06:00pm 26.2 W 6 9 1017.5 - 0.0 - - - - - - -
02/05:30pm 27.8 WNW 7 10 1017.3 - 0.0 - - - - - - -
02/05:00pm 29.8 N 5 7 1017.1 - 0.0 - - - - - - -
02/04:30pm 30.3 N 6 8 1017.0 - 0.0 - - - - - - -
02/04:00pm 30.3 N 9 11 1016.9 - 0.0 - - - - - - -
02/03:30pm 30.7 N 9 12 1017.0 - 0.0 - - - - - - -
02/03:00pm 31.7 NNE 9 14 1017.2 - 0.0 - - - - - - -
02/02:30pm 31.8 ENE 9 13 1017.3 - 0.0 - - - - - - -
02/02:00pm 31.4 E 5 13 1017.4 - 0.0 - - - - - - -
02/01:30pm 31.4 ENE 9 14 1017.6 - 0.0 - - - - - - -
02/01:00pm 31.3 ESE 10 17 1017.9 - 0.0 - - - - - - -
02/12:30pm 31.2 ESE 10 16 1018.2 - 0.0 - - - - - - -
02/12:00pm 30.6 ESE 11 16 1018.5 - 0.0 - - - - - - -
02/11:30am 29.6 ESE 12 16 1018.7 - 0.0 - - - - - - -
02/11:00am 28.3 ESE 13 17 1019.2 - 0.0 - - - - - - -
02/10:30am 27.7 ESE 16 21 1019.6 - 0.0 - - - - - - -
02/10:00am 26.7 ESE 17 22 1019.9 - 0.0 - - - - - - -
02/09:30am 25.6 ESE 17 21 1019.9 - 0.0 - - - - - - -
02/09:00am 24.6 ESE 14 18 1019.7 - 0.0 - - - - - - -
02/08:54am 24.3 ESE 13 18 1019.7 - 0.0 - - - - - - -
02/08:30am 22.7 ESE 5 7 1019.7 - 0.0 - - - - - - -
02/08:00am 19.1 S 2 4 1019.4 - 0.0 - - - - - - -
02/07:30am 15.0 SW 1 3 1019.1 - 0.0 - - - - - - -
02/07:00am 12.0 SSW 3 4 1018.8 - 0.0 - - - - - - -
02/06:30am 12.4 SW 4 5 1018.2 - 0.0 - - - - - - -
02/06:00am 12.0 SW 5 6 1017.9 - 0.0 - - - - - - -
02/05:30am 12.5 SW 4 4 1017.5 - 0.0 - - - - - - -
02/05:00am 12.6 SSW 5 6 1017.4 - 0.0 - - - - - - -
02/04:30am 14.9 WSW 4 6 1017.2 - 0.0 - - - - - - -
02/04:00am 16.1 WSW 4 5 1017.2 - 0.0 - - - - - - -
02/03:30am 16.5 WSW 5 5 1017.1 - 0.0 - - - - - - -
02/03:00am 17.1 SW 4 5 1017.3 - 0.0 - - - - - - -
02/02:30am 16.9 WSW 7 8 1017.5 - 0.0 - - - - - - -
02/02:00am 16.9 WNW 5 6 1017.7 - 0.0 - - - - - - -
02/01:30am 16.7 W 6 7 1017.9 - 0.0 - - - - - - -
02/01:00am 16.9 W 5 7 1018.0 - 0.0 - - - - - - -
02/12:30am 19.4 WSW 7 9 1017.9 - 0.0 - - - - - - -
02/12:00am 19.9 WSW 7 9 1017.9 - 0.0 - - - - - - -
 
Date/Time
WST
Temp

°C
Wind Pressure Rain
since 9am
mm
Weather Cloud Vis
km
Sea
Height
m
Swell
Dir
 
Speed
knots
Gust
knots
hPa Trend Height
m
Period
s
Dir
01/11:30pm 19.8 WSW 7 9 1017.9 - 0.0 - - - - - - -
01/11:00pm 19.9 WSW 7 9 1018.0 - 0.0 - - - - - - -
01/10:30pm 20.6 SW 8 10 1018.0 - 0.0 - - - - - - -
01/10:00pm 21.7 WSW 10 14 1017.9 - 0.0 - - - - - - -
01/09:30pm 22.3 WSW 11 14 1017.8 - 0.0 - - - - - - -
01/09:00pm 22.6 WSW 11 14 1017.6 - 0.0 - - - - - - -
01/08:30pm 23.2 WSW 11 15 1017.3 - 0.0 - - - - - - -
01/08:00pm 23.3 W 10 12 1017.2 - 0.0 - - - - - - -
01/07:30pm 23.9 W 10 13 1016.9 - 0.0 - - - - - - -
01/07:00pm 24.4 W 11 15 1016.5 - 0.0 - - - - - - -
01/06:30pm 25.1 W 10 13 1016.1 - 0.0 - - - - - - -
01/06:00pm 26.3 W 10 13 1015.7 - 0.0 - - - - - - -
01/05:30pm 28.5 WSW 10 13 1015.6 - 0.0 - - - - - - -
01/05:00pm 29.3 SW 11 15 1015.4 - 0.0 - - - - - - -
01/04:30pm 30.0 WSW 11 17 1015.2 - 0.0 - - - - - - -
01/04:00pm 30.7 SW 10 15 1015.0 - 0.0 - - - - - - -
01/03:30pm 31.2 SW 11 20 1015.1 - 0.0 - - - - - - -
01/03:00pm 30.8 WSW 8 14 1015.1 - 0.0 - - - - - - -
01/02:30pm 30.8 WSW 7 11 1015.3 - 0.0 - - - - - - -
01/02:00pm 30.7 SW 9 14 1015.5 - 0.0 - - - - - - -
01/01:30pm 30.5 WSW 8 16 1015.8 - 0.0 - - - - - - -
01/01:00pm 29.2 WSW 10 15 1016.2 - 0.0 - - - - - - -
01/12:30pm 29.6 SW 9 13 1016.6 - 0.0 - - - - - - -
01/12:00pm 29.3 SW 10 14 1017.0 - 0.0 - - - - - - -
01/11:30am 29.1 SSW 8 12 1017.4 - 0.0 - - - - - - -
01/11:00am 28.7 SSW 8 13 1017.7 - 0.0 - - - - - - -
01/10:30am 28.0 SSE 8 11 1018.1 - 0.0 - - - - - - -
01/10:00am 26.4 S 8 11 1018.5 - 0.0 - - - - - - -
01/09:30am 25.4 SSW 8 11 1018.5 - 0.0 - - - - - - -
01/09:00am 23.1 WSW 4 7 1018.3 - 0.0 - - - - - - -
01/08:30am 21.6 N 4 5 1017.9 - 0.0 - - - - - - -
01/08:00am 20.1 SW 6 7 1017.3 - 0.0 - - - - - - -
01/07:30am 16.7 WSW 4 5 1017.0 - 0.0 - - - - - - -
01/07:00am 14.6 CALM 0 0 1016.6 - 0.0 - - - - - - -
01/06:30am 14.8 W 1 3 1016.3 - 0.0 - - - - - - -
01/06:00am 14.0 CALM 0 0 1016.0 - 0.0 - - - - - - -
01/05:30am 14.4 W 3 4 1015.6 - 0.0 - - - - - - -
01/05:00am 14.5 CALM 0 0 1015.5 - 0.0 - - - - - - -
01/04:30am 15.6 WSW 2 4 1015.4 - 0.0 - - - - - - -
01/04:00am 17.4 WNW 6 7 1015.3 - 0.0 - - - - - - -
01/03:30am 16.4 W 4 5 1015.4 - 0.0 - - - - - - -
01/03:00am 17.7 WNW 5 7 1015.7 - 0.0 - - - - - - -
01/02:30am 18.2 NNW 5 6 1015.9 - 0.0 - - - - - - -
01/02:00am 18.8 W 5 6 1015.9 - 0.0 - - - - - - -
01/01:30am 19.4 W 7 9 1016.0 - 0.0 - - - - - - -
01/01:00am 19.4 W 7 9 1016.3 - 0.0 - - - - - - -
01/12:30am 19.1 W 6 8 1016.6 - 0.0 - - - - - - -
01/12:00am 19.4 WNW 6 8 1016.7 - 0.0 - - - - - - -
 
Date/Time
WST
Temp

°C
Wind Pressure Rain
since 9am
mm
Weather Cloud Vis
km
Sea
Height
m
Swell
Dir
 
Speed
knots
Gust
knots
hPa Trend Height
m
Period
s
Dir
31/11:30pm 19.9 W 6 7 1016.8 - 0.0 - - - - - - -
31/11:00pm 20.2 W 6 8 1016.8 - 0.0 - - - - - - -
31/10:30pm 20.7 W 8 9 1016.6 - 0.0 - - - - - - -
31/10:00pm 20.9 WNW 7 9 1016.5 - 0.0 - - - - - - -
31/09:30pm 21.2 WNW 7 9 1016.5 - 0.0 - - - - - - -

Other Formats:

Comma delimited format used in spreadsheet applications
http://www.bom.gov.au/fwo/IDW60701/IDW60701.94308.axf

JavaScript Object Notation format (JSON) in row-major order
http://www.bom.gov.au/fwo/IDW60701/IDW60701.94308.json